Time;durP1;ratioP1;P1;durP2;ratioP2;P2;SDS_P1;SDS_P2;PMS_P1;PMS_P2;Temp;Humidity;BMP_temperature;BMP_pressure;BME280_temperature;BME280_humidity;BME280_pressure;Samples;Min_cycle;Max_cycle;Signal;HPM_P1;HPM_P2
2024/02/10 00:02:02;;;;;;;;;;;;;;;26.37;38.65;91725.09;5062175;28;9520;-38
2024/02/10 00:04:28;;;;;;;;;;;;;;;26.34;38.57;91720.03;5042174;28;7230;-38
2024/02/10 00:06:56;;;;;;;;;;;;;;;26.33;38.37;91705.53;5063071;28;6965;-38
2024/02/10 00:09:24;;;;;;;;;;;;;;;26.36;39.14;91711.91;5080909;28;6963;-38
2024/02/10 00:11:50;;;;;;;;;;;;;;;26.34;38.33;91717.28;5092504;28;7409;-54
2024/02/10 00:14:18;;;;;;;;;;;;;;;26.32;38.91;91704.06;5080354;28;6956;-53
2024/02/10 00:16:46;;;;;;;;;;;;;;;26.36;38.97;91700.88;5075244;28;7272;-53
2024/02/10 00:19:20;;;;;;;;;;;;;;;26.37;38.90;91707.84;5060242;28;7250;-55
2024/02/10 00:22:17;;;;;;;;;;;;;;;26.38;38.32;91696.22;5044218;28;8802;-57
2024/02/10 00:24:58;;;;;;;;;;;;;;;26.35;38.54;91693.91;4996263;28;7250;-57
2024/02/10 00:27:36;;;;;;;;;;;;;;;26.36;38.67;91695.38;5014604;28;9552;-57
2024/02/10 00:30:16;;;;;;;;;;;;;;;26.36;38.72;91676.09;5003972;28;7386;-57
2024/02/10 00:32:51;;;;;;;;;;;;;;;26.35;39.22;91675.34;5007263;28;7199;-57
2024/02/10 00:35:34;;;;;;;;;;;;;;;26.35;39.25;91671.88;5016826;28;6988;-57
2024/02/10 00:38:08;;;;;;;;;;;;;;;26.34;39.04;91668.38;5013553;28;7035;-57
2024/02/10 00:40:34;;;;;;;;;;;;;;;26.34;38.25;91671.13;4995865;28;9170;-57
2024/02/10 00:43:00;;;;;;;;;;;;;;;26.33;38.81;91669.69;5016420;28;7339;-57
2024/02/10 00:45:35;;;;;;;;;;;;;;;26.34;38.60;91675.94;5014789;28;7096;-57
2024/02/10 00:48:05;;;;;;;;;;;;;;;26.33;38.41;91660.69;5001944;28;7236;-57
2024/02/10 00:50:33;;;;;;;;;;;;;;;26.33;39.01;91663.47;5010974;28;7140;-57
2024/02/10 00:53:02;;;;;;;;;;;;;;;26.35;38.62;91671.88;5009568;28;7446;-57
2024/02/10 00:55:30;;;;;;;;;;;;;;;26.35;38.58;91667.09;5000664;28;7348;-57
2024/02/10 00:58:06;;;;;;;;;;;;;;;26.34;38.56;91664.91;5018160;28;7266;-57
2024/02/10 01:00:36;;;;;;;;;;;;;;;26.34;38.76;91660.13;5014086;28;6976;-57
2024/02/10 01:03:06;;;;;;;;;;;;;;;26.34;38.94;91660.13;5048352;28;7025;-57
2024/02/10 01:05:32;;;;;;;;;;;;;;;26.33;39.14;91646.94;5072075;28;7079;-57
2024/02/10 01:08:00;;;;;;;;;;;;;;;26.34;38.36;91643.56;5078950;28;7058;-57
2024/02/10 01:10:26;;;;;;;;;;;;;;;26.34;38.43;91637.38;5087124;28;7248;-57
2024/02/10 01:12:54;;;;;;;;;;;;;;;26.34;39.20;91634.59;5059350;28;7226;-57
2024/02/10 01:15:21;;;;;;;;;;;;;;;26.32;38.85;91628.97;5061586;28;7062;-57
2024/02/10 01:17:48;;;;;;;;;;;;;;;26.28;38.47;91629.38;5072245;28;7252;-57
2024/02/10 01:20:17;;;;;;;;;;;;;;;26.33;38.83;91624.88;5061109;28;9004;-57
2024/02/10 01:22:45;;;;;;;;;;;;;;;26.31;38.58;91617.19;5067758;28;7070;-57
2024/02/10 01:25:15;;;;;;;;;;;;;;;26.31;38.93;91624.75;5078029;28;7242;-57
2024/02/10 01:27:46;;;;;;;;;;;;;;;26.32;38.82;91615.19;5066434;28;9053;-57
2024/02/10 01:30:17;;;;;;;;;;;;;;;26.29;38.83;91605.31;5069909;28;7758;-57
2024/02/10 01:32:47;;;;;;;;;;;;;;;26.31;38.94;91605.44;5062240;28;6969;-40
2024/02/10 01:35:39;;;;;;;;;;;;;;;26.31;38.46;91605.44;5078472;28;9239;-42
2024/02/10 01:38:15;;;;;;;;;;;;;;;26.34;38.39;91601.53;5080159;28;7228;-40
2024/02/10 01:40:42;;;;;;;;;;;;;;;26.33;38.74;91592.53;5078173;28;7293;-40
2024/02/10 01:43:09;;;;;;;;;;;;;;;26.32;38.57;91587.63;5069294;28;9096;-41
2024/02/10 01:45:35;;;;;;;;;;;;;;;26.34;38.80;91576.75;5063017;28;7337;-40
2024/02/10 01:48:08;;;;;;;;;;;;;;;26.31;38.51;91561.38;5060205;28;7117;-42
2024/02/10 01:50:59;;;;;;;;;;;;;;;26.31;38.20;91562.09;5084919;28;7336;-40
2024/02/10 01:53:48;;;;;;;;;;;;;;;26.27;38.61;91564.56;5077357;28;7232;-41
2024/02/10 01:56:29;;;;;;;;;;;;;;;26.31;38.67;91569.63;5072742;28;7857;-41
2024/02/10 01:58:57;;;;;;;;;;;;;;;26.31;38.43;91572.38;5088546;28;7120;-41
2024/02/10 02:01:27;;;;;;;;;;;;;;;26.30;38.51;91577.16;5082346;28;7132;-40
2024/02/10 02:04:22;;;;;;;;;;;;;;;26.31;38.18;91573.13;5074399;28;7077;-41
2024/02/10 02:06:50;;;;;;;;;;;;;;;26.31;38.76;91572.38;5072196;28;7923;-42
2024/02/10 02:09:20;;;;;;;;;;;;;;;26.30;38.20;91563.38;5092777;28;7392;-43
2024/02/10 02:11:49;;;;;;;;;;;;;;;26.29;38.54;91552.97;5064430;28;7187;-41
2024/02/10 02:14:15;;;;;;;;;;;;;;;26.31;38.50;91561.38;5067874;28;10122;-42
2024/02/10 02:16:46;;;;;;;;;;;;;;;26.28;38.93;91557.75;5088946;28;6985;-42
2024/02/10 02:19:27;;;;;;;;;;;;;;;26.28;38.29;91543.22;5085344;28;6976;-42
2024/02/10 02:22:14;;;;;;;;;;;;;;;26.25;38.23;91541.66;5075414;28;7102;-39
2024/02/10 02:24:39;;;;;;;;;;;;;;;26.27;38.38;91541.78;5077229;28;8854;-40
2024/02/10 02:27:11;;;;;;;;;;;;;;;26.28;38.82;91546.72;5055891;28;9065;-40
2024/02/10 02:29:52;;;;;;;;;;;;;;;26.25;38.22;91525.84;5087890;28;6970;-41
2024/02/10 02:32:19;;;;;;;;;;;;;;;26.28;38.40;91535.69;5070180;28;9082;-41
2024/02/10 02:34:55;;;;;;;;;;;;;;;26.28;38.67;91526.69;5085581;28;8915;-41
2024/02/10 02:37:22;;;;;;;;;;;;;;;26.26;38.29;91529.31;5087641;28;7077;-40
2024/02/10 02:39:56;;;;;;;;;;;;;;;26.27;38.35;91517.72;5094516;28;9544;-40
2024/02/10 02:43:13;;;;;;;;;;;;;;;26.27;38.06;91501.19;5061072;28;7342;-56
2024/02/10 02:45:42;;;;;;;;;;;;;;;26.26;38.97;91499.00;4991084;28;7114;-57
2024/02/10 02:48:14;;;;;;;;;;;;;;;26.27;38.36;91500.47;5012875;28;9207;-57
2024/02/10 02:50:50;;;;;;;;;;;;;;;26.27;38.39;91503.94;5001730;28;7746;-57
2024/02/10 02:53:16;;;;;;;;;;;;;;;26.26;38.91;91494.22;4996962;28;8466;-57
2024/02/10 02:55:45;;;;;;;;;;;;;;;26.26;38.50;91485.22;4999670;28;6938;-56
2024/02/10 02:58:13;;;;;;;;;;;;;;;26.27;38.57;91486.69;4985540;28;7077;-57
2024/02/10 03:00:48;;;;;;;;;;;;;;;26.26;38.58;91488.00;5003623;28;7819;-57
2024/02/10 03:03:25;;;;;;;;;;;;;;;26.27;38.93;91484.66;5002668;28;6856;-57
2024/02/10 03:06:00;;;;;;;;;;;;;;;26.24;38.31;91483.06;4995508;28;8492;-57
2024/02/10 03:08:35;;;;;;;;;;;;;;;26.27;38.07;91492.19;4985629;28;7234;-57
2024/02/10 03:11:04;;;;;;;;;;;;;;;26.27;38.74;91494.97;5000042;28;7325;-57
2024/02/10 03:13:30;;;;;;;;;;;;;;;26.25;38.30;91489.31;4995481;28;7089;-57
2024/02/10 03:15:56;;;;;;;;;;;;;;;26.26;38.60;91496.25;4998440;28;6984;-57
2024/02/10 03:18:22;;;;;;;;;;;;;;;26.25;38.73;91486.56;4992276;28;7099;-57
2024/02/10 03:20:54;;;;;;;;;;;;;;;26.26;38.55;91496.97;4987836;28;7046;-57
2024/02/10 03:23:21;;;;;;;;;;;;;;;26.24;38.81;91490.59;5059261;28;6993;-57
2024/02/10 03:25:49;;;;;;;;;;;;;;;26.23;38.05;91491.94;5053310;28;6991;-57
2024/02/10 03:28:24;;;;;;;;;;;;;;;26.26;38.59;91499.72;5072380;28;6848;-57
2024/02/10 03:30:51;;;;;;;;;;;;;;;26.24;37.99;91496.84;5075576;28;9088;-57
2024/02/10 03:33:24;;;;;;;;;;;;;;;26.27;38.07;91500.47;5080293;28;7203;-57
2024/02/10 03:35:56;;;;;;;;;;;;;;;26.24;38.61;91502.34;5075963;28;8890;-57
2024/02/10 03:38:37;;;;;;;;;;;;;;;26.28;38.07;91508.13;5077213;28;9033;-57
2024/02/10 03:41:10;;;;;;;;;;;;;;;26.24;38.26;91496.13;5072677;28;9065;-57
2024/02/10 03:43:36;;;;;;;;;;;;;;;26.27;38.32;91505.97;5079120;28;6913;-57
2024/02/10 03:46:02;;;;;;;;;;;;;;;26.26;38.21;91499.00;5067564;28;7164;-57
2024/02/10 03:48:45;;;;;;;;;;;;;;;26.26;38.48;91493.50;5070084;28;9047;-57
2024/02/10 03:51:12;;;;;;;;;;;;;;;26.27;38.21;91494.97;5081214;28;7045;-50
2024/02/10 03:53:40;;;;;;;;;;;;;;;26.25;38.50;91489.31;5060070;28;9076;-38
2024/02/10 03:56:11;;;;;;;;;;;;;;;26.26;38.20;91490.75;5056705;28;9473;-38
2024/02/10 03:58:43;;;;;;;;;;;;;;;26.27;38.38;91495.69;5089642;28;9128;-38
2024/02/10 04:01:13;;;;;;;;;;;;;;;26.27;38.32;91494.97;5056174;28;7043;-38
2024/02/10 04:03:45;;;;;;;;;;;;;;;26.25;38.45;91494.81;5080364;28;7266;-37
2024/02/10 04:06:11;;;;;;;;;;;;;;;26.25;38.15;91489.31;5072526;28;9060;-37
2024/02/10 04:08:45;;;;;;;;;;;;;;;26.26;38.78;91490.75;5073864;28;7105;-38
2024/02/10 04:11:18;;;;;;;;;;;;;;;26.26;38.71;91488.00;5083372;28;9447;-37
2024/02/10 04:13:44;;;;;;;;;;;;;;;26.25;38.64;91489.31;5076399;28;9044;-37
2024/02/10 04:16:12;;;;;;;;;;;;;;;26.22;38.38;91490.47;5074606;28;9355;-38
2024/02/10 04:18:40;;;;;;;;;;;;;;;26.22;38.48;91487.72;5052838;28;7412;-37
2024/02/10 04:21:17;;;;;;;;;;;;;;;26.23;38.11;91478.16;5064921;28;7513;-38
2024/02/10 04:23:43;;;;;;;;;;;;;;;26.20;38.70;91474.53;5062517;28;6976;-38
2024/02/10 04:26:21;;;;;;;;;;;;;;;26.22;38.47;91455.38;5071591;28;6975;-37
2024/02/10 04:29:00;;;;;;;;;;;;;;;26.23;38.47;91467.13;5077710;28;8211;-37
2024/02/10 04:31:29;;;;;;;;;;;;;;;26.25;38.51;91464.50;5086264;28;7267;-37
2024/02/10 04:33:55;;;;;;;;;;;;;;;26.26;38.16;91465.94;5076602;28;6952;-38
2024/02/10 04:36:35;;;;;;;;;;;;;;;26.26;38.13;91460.44;5053309;28;7001;-37
2024/02/10 04:39:12;;;;;;;;;;;;;;;26.25;38.64;91459.00;5070954;28;8991;-38
2024/02/10 04:41:46;;;;;;;;;;;;;;;26.22;38.34;91452.63;5053117;28;7240;-37
2024/02/10 04:44:28;;;;;;;;;;;;;;;26.24;38.18;91458.28;5069397;28;7414;-38
2024/02/10 04:46:55;;;;;;;;;;;;;;;26.24;38.56;91461.03;5088077;28;7260;-37
2024/02/10 04:49:27;;;;;;;;;;;;;;;26.26;38.32;91454.91;5070000;28;7261;-38
2024/02/10 04:51:55;;;;;;;;;;;;;;;26.25;38.62;91445.22;5074015;28;7283;-37
2024/02/10 04:55:00;;;;;;;;;;;;;;;26.25;38.50;91456.25;5064756;28;6988;-38
2024/02/10 04:57:32;;;;;;;;;;;;;;;26.24;37.96;91455.53;4994734;28;9102;-37
2024/02/10 05:00:18;;;;;;;;;;;;;;;26.26;37.88;91449.41;4980771;28;7307;-37
2024/02/10 05:03:13;;;;;;;;;;;;;;;26.20;38.68;91441.47;4973459;28;8947;-57
2024/02/10 05:05:58;;;;;;;;;;;;;;;26.23;38.44;91442.34;4949633;28;7348;-57
2024/02/10 05:08:37;;;;;;;;;;;;;;;26.24;38.37;91441.00;4976525;28;9233;-57
2024/02/10 05:11:03;;;;;;;;;;;;;;;26.25;38.48;91439.72;4971999;28;7070;-57
2024/02/10 05:13:30;;;;;;;;;;;;;;;26.25;38.09;91432.19;4955581;28;9113;-56
2024/02/10 05:15:56;;;;;;;;;;;;;;;26.27;38.33;91426.81;4973035;28;7332;-57
2024/02/10 05:18:22;;;;;;;;;;;;;;;26.26;38.44;91427.38;4975618;28;7263;-57
2024/02/10 05:21:02;;;;;;;;;;;;;;;26.25;38.23;91431.44;4975184;28;7324;-57
2024/02/10 05:23:41;;;;;;;;;;;;;;;26.25;38.73;91431.44;4982635;28;9165;-57
2024/02/10 05:26:43;;;;;;;;;;;;;;;26.28;37.90;91419.25;4975824;28;7127;-57
2024/02/10 05:29:30;;;;;;;;;;;;;;;26.27;38.32;91417.81;4915855;29;6993;-57
2024/02/10 05:31:58;;;;;;;;;;;;;;;26.26;38.49;91408.09;4940465;28;7254;-57
2024/02/10 05:34:24;;;;;;;;;;;;;;;26.26;38.12;91410.84;4947492;28;7459;-57
2024/02/10 05:36:50;;;;;;;;;;;;;;;26.26;38.28;91399.81;4940935;28;7108;-57
2024/02/10 05:39:19;;;;;;;;;;;;;;;26.22;38.10;91383.75;4962709;28;7243;-57
2024/02/10 05:41:48;;;;;;;;;;;;;;;26.24;38.53;91389.41;4982346;28;6974;-56
2024/02/10 05:44:16;;;;;;;;;;;;;;;26.26;38.16;91394.31;5002448;28;7719;-57
2024/02/10 05:46:45;;;;;;;;;;;;;;;26.24;38.48;91383.88;5021243;28;7827;-57
2024/02/10 05:49:12;;;;;;;;;;;;;;;26.26;38.73;91394.31;5006268;28;9685;-57
2024/02/10 05:51:44;;;;;;;;;;;;;;;26.26;38.53;91388.81;5007625;28;9120;-57
2024/02/10 05:54:11;;;;;;;;;;;;;;;26.27;38.23;91390.25;5006396;28;9574;-56
2024/02/10 05:56:40;;;;;;;;;;;;;;;26.27;38.55;91384.75;4979362;28;9235;-57
2024/02/10 05:59:10;;;;;;;;;;;;;;;26.27;38.39;91368.22;4997237;28;7226;-57
2024/02/10 06:01:39;;;;;;;;;;;;;;;26.27;38.21;91368.94;4995599;28;7146;-37
2024/02/10 06:04:15;;;;;;;;;;;;;;;26.29;38.74;91368.34;5075688;28;7850;-37
2024/02/10 06:06:47;;;;;;;;;;;;;;;26.28;38.01;91372.41;5064735;28;7234;-37
2024/02/10 06:09:46;;;;;;;;;;;;;;;26.27;38.23;91368.94;5060735;28;7676;-37
2024/02/10 06:12:14;;;;;;;;;;;;;;;26.25;38.10;91373.59;5002694;28;7255;-37
2024/02/10 06:14:50;;;;;;;;;;;;;;;26.27;38.16;91374.47;5002682;28;8746;-37
2024/02/10 06:18:09;;;;;;;;;;;;;;;26.26;38.16;91383.28;5000513;28;9314;-37
2024/02/10 06:20:36;;;;;;;;;;;;;;;26.28;38.58;91383.44;4967647;28;9242;-37
2024/02/10 06:23:03;;;;;;;;;;;;;;;26.27;38.53;91384.75;4952392;28;7158;-37
2024/02/10 06:25:29;;;;;;;;;;;;;;;26.25;38.22;91381.84;4957192;28;7544;-38
2024/02/10 06:27:59;;;;;;;;;;;;;;;26.26;38.12;91394.31;4958613;28;7304;-37
2024/02/10 06:30:41;;;;;;;;;;;;;;;26.25;38.66;91381.84;4968850;28;6980;-37
2024/02/10 06:33:26;;;;;;;;;;;;;;;26.26;38.57;91377.78;4963625;28;6921;-37
2024/02/10 06:36:02;;;;;;;;;;;;;;;26.27;38.43;91368.22;4968779;28;7258;-37
2024/02/10 06:38:34;;;;;;;;;;;;;;;26.27;38.75;91365.47;4957024;28;7453;-37
2024/02/10 06:41:03;;;;;;;;;;;;;;;26.25;38.92;91365.31;4953407;28;9031;-37
2024/02/10 06:43:34;;;;;;;;;;;;;;;26.24;38.22;91366.63;4955108;28;9153;-37
2024/02/10 06:46:10;;;;;;;;;;;;;;;26.22;38.14;91366.50;4959295;28;8574;-37
2024/02/10 06:48:36;;;;;;;;;;;;;;;26.24;38.49;91372.13;5011246;28;7333;-37
2024/02/10 06:51:05;;;;;;;;;;;;;;;26.24;38.13;91374.88;5006333;28;7340;-37
2024/02/10 06:53:35;;;;;;;;;;;;;;;26.25;38.24;91381.84;5016183;28;7557;-37
2024/02/10 06:56:03;;;;;;;;;;;;;;;26.27;38.62;91384.75;5038055;28;9230;-37
2024/02/10 06:58:29;;;;;;;;;;;;;;;26.25;38.75;91381.84;5081413;28;8448;-37
2024/02/10 07:00:58;;;;;;;;;;;;;;;26.26;38.68;91377.78;5062487;28;9030;-37
2024/02/10 07:03:32;;;;;;;;;;;;;;;26.25;37.97;91385.34;5085925;28;6994;-37
2024/02/10 07:06:31;;;;;;;;;;;;;;;26.26;38.22;91381.25;5062635;28;7257;-37
2024/02/10 07:09:07;;;;;;;;;;;;;;;26.23;38.25;91385.19;5057552;28;6975;-37
2024/02/10 07:11:33;;;;;;;;;;;;;;;26.26;38.18;91386.03;5073788;28;8705;-38
2024/02/10 07:14:04;;;;;;;;;;;;;;;26.25;38.01;91390.84;5076787;28;9221;-39
2024/02/10 07:16:47;;;;;;;;;;;;;;;26.27;38.62;91393.00;5064609;28;7054;-38
2024/02/10 07:19:15;;;;;;;;;;;;;;;26.26;38.25;91394.31;5060468;28;9130;-38
2024/02/10 07:21:51;;;;;;;;;;;;;;;26.27;38.38;91393.75;5054113;28;7058;-39
2024/02/10 07:24:18;;;;;;;;;;;;;;;26.29;38.32;91398.66;5052616;28;7006;-38
2024/02/10 07:26:44;;;;;;;;;;;;;;;26.28;38.21;91397.19;5063930;28;7180;-38
2024/02/10 07:29:11;;;;;;;;;;;;;;;26.26;38.41;91402.56;5058389;28;8596;-38
2024/02/10 07:31:51;;;;;;;;;;;;;;;26.28;38.48;91403.44;5073131;28;7589;-40
2024/02/10 07:34:30;;;;;;;;;;;;;;;26.28;38.62;91400.69;5061635;28;9187;-39
2024/02/10 07:36:59;;;;;;;;;;;;;;;26.26;38.89;91399.81;5061874;28;7604;-38
2024/02/10 07:39:25;;;;;;;;;;;;;;;26.28;39.02;91408.94;5057965;28;7324;-38
2024/02/10 07:41:52;;;;;;;;;;;;;;;26.28;38.30;91395.19;5077248;28;7241;-39
2024/02/10 07:44:19;;;;;;;;;;;;;;;26.28;38.67;91386.91;5072877;28;9142;-39
2024/02/10 07:46:46;;;;;;;;;;;;;;;26.32;38.98;91386.47;5070610;28;9371;-38
2024/02/10 07:49:21;;;;;;;;;;;;;;;26.30;38.63;91386.31;5064251;28;7248;-39
2024/02/10 07:51:49;;;;;;;;;;;;;;;26.28;38.52;91394.44;5074803;28;7197;-38
2024/02/10 07:54:22;;;;;;;;;;;;;;;26.27;39.02;91387.50;5065803;28;7034;-39
2024/02/10 07:56:49;;;;;;;;;;;;;;;26.29;38.75;91384.88;5043582;28;7230;-39
2024/02/10 07:59:26;;;;;;;;;;;;;;;26.29;38.42;91391.13;5073531;28;7394;-38
2024/02/10 08:01:52;;;;;;;;;;;;;;;26.28;39.04;91391.69;5064953;28;7242;-38
2024/02/10 08:04:27;;;;;;;;;;;;;;;26.28;38.45;91386.91;5052053;28;7124;-39
2024/02/10 08:06:55;;;;;;;;;;;;;;;26.28;38.93;91375.16;5075647;28;9076;-39
2024/02/10 08:09:21;;;;;;;;;;;;;;;26.27;38.37;91385.47;5068864;28;7156;-39
2024/02/10 08:11:47;;;;;;;;;;;;;;;26.25;38.48;91390.13;5061668;28;8104;-39
2024/02/10 08:14:17;;;;;;;;;;;;;;;26.24;39.04;91391.41;5062784;28;7140;-38
2024/02/10 08:16:53;;;;;;;;;;;;;;;26.24;38.89;91396.94;5072848;28;7235;-40
2024/02/10 08:19:20;;;;;;;;;;;;;;;26.25;38.72;91390.84;5072002;28;7153;-38
2024/02/10 08:21:57;;;;;;;;;;;;;;;26.23;39.12;91396.19;5076005;28;6984;-38
2024/02/10 08:24:34;;;;;;;;;;;;;;;26.22;39.11;91380.25;5081175;28;7041;-38
2024/02/10 08:27:09;;;;;;;;;;;;;;;26.22;38.83;91385.78;5060890;28;7087;-38
2024/02/10 08:29:35;;;;;;;;;;;;;;;26.23;38.93;91378.97;5053724;28;9132;-38
2024/02/10 08:32:13;;;;;;;;;;;;;;;26.20;38.96;91374.63;5086533;28;7241;-38
2024/02/10 08:34:45;;;;;;;;;;;;;;;26.23;38.90;91382.44;5039911;28;7333;-38
2024/02/10 08:37:14;;;;;;;;;;;;;;;26.26;39.63;91372.28;5043417;28;9471;-39
2024/02/10 08:39:43;;;;;;;;;;;;;;;26.27;39.08;91379.25;5052224;28;7062;-39
2024/02/10 08:42:10;;;;;;;;;;;;;;;26.26;39.20;91361.97;5070990;28;7808;-39
2024/02/10 08:44:38;;;;;;;;;;;;;;;26.29;39.14;91371.09;5064450;28;9020;-39
2024/02/10 08:47:07;;;;;;;;;;;;;;;26.30;38.73;91361.50;5067538;28;7414;-42
2024/02/10 08:49:36;;;;;;;;;;;;;;;26.29;39.85;91354.56;5063945;28;9132;-39
2024/02/10 08:52:19;;;;;;;;;;;;;;;26.29;39.05;91358.06;5083685;28;7306;-39
2024/02/10 08:54:48;;;;;;;;;;;;;;;26.30;38.92;91356.00;5069071;28;7267;-39
2024/02/10 08:57:17;;;;;;;;;;;;;;;26.28;39.08;91344.84;5071759;28;8734;-39
2024/02/10 08:59:45;;;;;;;;;;;;;;;26.29;38.98;91349.78;5067006;28;7234;-39
2024/02/10 09:02:12;;;;;;;;;;;;;;;26.30;39.04;91345.72;5064094;28;8748;-39
2024/02/10 09:04:53;;;;;;;;;;;;;;;26.31;39.04;91343.69;5062023;28;9641;-38
2024/02/10 09:07:26;;;;;;;;;;;;;;;26.32;39.28;91336.88;5077322;28;7368;-39
2024/02/10 09:09:58;;;;;;;;;;;;;;;26.32;38.95;91331.38;5065546;28;6990;-39
2024/02/10 09:12:27;;;;;;;;;;;;;;;26.33;39.11;91330.03;5069548;28;7232;-38
2024/02/10 09:14:52;;;;;;;;;;;;;;;26.29;38.74;91327.03;5077179;28;6994;-38
2024/02/10 09:17:18;;;;;;;;;;;;;;;26.30;39.16;91318.16;5062080;28;9133;-39
2024/02/10 09:19:47;;;;;;;;;;;;;;;26.31;38.66;91302.34;5065052;28;8121;-39
2024/02/10 09:22:16;;;;;;;;;;;;;;;26.28;40.34;91298.75;5073336;28;7624;-39
2024/02/10 09:24:42;;;;;;;;;;;;;;;26.31;40.19;91302.34;5085467;28;7214;-38
2024/02/10 09:27:11;;;;;;;;;;;;;;;26.31;39.70;91297.56;5070440;28;7000;-39
2024/02/10 09:29:39;;;;;;;;;;;;;;;26.29;39.35;91291.22;5055881;28;6983;-39
2024/02/10 09:32:05;;;;;;;;;;;;;;;26.27;39.83;91293.84;5083760;28;7000;-37
2024/02/10 09:34:31;;;;;;;;;;;;;;;26.30;38.93;91301.63;5077487;28;7254;-37
2024/02/10 09:37:00;;;;;;;;;;;;;;;26.27;39.04;91271.78;5084510;28;7234;-36
2024/02/10 09:39:26;;;;;;;;;;;;;;;26.31;39.05;91285.81;5075314;28;9087;-36
2024/02/10 09:42:01;;;;;;;;;;;;;;;26.32;38.67;91287.28;5067330;28;7074;-37
2024/02/10 09:44:28;;;;;;;;;;;;;;;26.32;38.81;91284.53;5078953;28;7221;-37
2024/02/10 09:46:57;;;;;;;;;;;;;;;26.32;38.69;91276.25;5059594;28;7147;-37
2024/02/10 09:49:27;;;;;;;;;;;;;;;26.32;39.17;91274.22;5078756;28;6976;-37
2024/02/10 09:51:53;;;;;;;;;;;;;;;26.30;39.08;91278.84;5060239;28;7458;-37
2024/02/10 09:54:19;;;;;;;;;;;;;;;26.35;39.43;91275.06;5060154;28;7122;-37
2024/02/10 09:56:45;;;;;;;;;;;;;;;26.37;39.33;91259.38;5060162;28;9032;-37
2024/02/10 09:59:26;;;;;;;;;;;;;;;26.40;39.02;91249.94;5061510;28;8449;-37
2024/02/10 10:01:55;;;;;;;;;;;;;;;26.37;39.26;91269.69;5063667;28;7259;-37
2024/02/10 10:04:26;;;;;;;;;;;;;;;26.34;39.14;91268.81;5068712;28;9169;-37
2024/02/10 10:06:51;;;;;;;;;;;;;;;26.36;38.87;91254.47;5073986;28;7183;-37
2024/02/10 10:09:20;;;;;;;;;;;;;;;26.35;39.37;91258.53;5048538;28;9709;-37
2024/02/10 10:11:49;;;;;;;;;;;;;;;26.37;39.43;91269.69;5076115;28;7214;-37
2024/02/10 10:14:21;;;;;;;;;;;;;;;26.39;39.70;91267.06;5031113;28;7237;-37
2024/02/10 10:16:57;;;;;;;;;;;;;;;26.40;39.22;91263.72;5027685;28;9286;-37
2024/02/10 10:19:30;;;;;;;;;;;;;;;26.43;39.80;91253.53;5019014;28;7373;-37
2024/02/10 10:21:57;;;;;;;;;;;;;;;26.43;39.50;91261.81;5016902;28;6998;-37
2024/02/10 10:24:25;;;;;;;;;;;;;;;26.43;39.13;91253.53;5041026;28;9171;-37
2024/02/10 10:26:59;;;;;;;;;;;;;;;26.44;39.96;91255.00;5041525;28;7267;-37
2024/02/10 10:29:30;;;;;;;;;;;;;;;26.44;39.38;91255.00;5022981;28;9068;-38
2024/02/10 10:31:59;;;;;;;;;;;;;;;26.48;39.10;91250.47;5007043;28;9169;-37
2024/02/10 10:34:29;;;;;;;;;;;;;;;26.48;39.31;91246.97;5045758;28;7311;-37
2024/02/10 10:37:00;;;;;;;;;;;;;;;26.47;39.15;91240.03;5052323;28;9296;-38
2024/02/10 10:39:29;;;;;;;;;;;;;;;26.43;39.31;91242.50;5041792;28;7142;-38
2024/02/10 10:41:58;;;;;;;;;;;;;;;26.47;39.57;91242.78;5029961;28;7253;-57
2024/02/10 10:44:32;;;;;;;;;;;;;;;26.48;39.26;91233.19;5040919;28;9535;-57
2024/02/10 10:47:49;;;;;;;;;;;;;;;26.49;39.11;91249.13;5077874;28;7258;-57
2024/02/10 10:50:34;;;;;;;;;;;;;;;26.46;39.03;91228.28;5013627;28;8563;-57
2024/02/10 10:53:09;;;;;;;;;;;;;;;26.44;39.64;91228.16;5017156;28;6986;-57
2024/02/10 10:55:43;;;;;;;;;;;;;;;26.44;39.19;91222.66;5033403;28;7337;-57
2024/02/10 10:58:21;;;;;;;;;;;;;;;26.50;39.13;91219.53;5034173;28;8917;-58
2024/02/10 11:00:59;;;;;;;;;;;;;;;26.47;39.47;91207.66;5016861;28;7093;-57
2024/02/10 11:03:42;;;;;;;;;;;;;;;26.48;39.30;91217.41;5015738;28;7131;-57
2024/02/10 11:06:19;;;;;;;;;;;;;;;26.50;38.86;91194.75;5013397;28;7286;-57
2024/02/10 11:09:03;;;;;;;;;;;;;;;26.50;38.96;91209.25;5013747;28;6986;-57
2024/02/10 11:11:36;;;;;;;;;;;;;;;26.50;39.20;91191.97;5013417;28;7055;-57
2024/02/10 11:14:10;;;;;;;;;;;;;;;26.48;38.91;91191.84;5012212;28;6977;-57
2024/02/10 11:16:36;;;;;;;;;;;;;;;26.47;39.21;91176.66;4997099;28;6962;-57
2024/02/10 11:19:03;;;;;;;;;;;;;;;26.47;39.19;91184.91;5020444;28;9074;-57
2024/02/10 11:21:31;;;;;;;;;;;;;;;26.50;39.30;91175.44;5033436;28;7179;-57
2024/02/10 11:24:10;;;;;;;;;;;;;;;26.51;38.66;91180.38;5033130;28;7282;-57
2024/02/10 11:26:39;;;;;;;;;;;;;;;26.52;38.88;91164.56;5069337;28;7424;-57
2024/02/10 11:29:10;;;;;;;;;;;;;;;26.51;39.52;91176.91;5063001;28;9124;-57
2024/02/10 11:31:41;;;;;;;;;;;;;;;26.51;39.21;91176.91;5071196;28;9181;-57
2024/02/10 11:34:17;;;;;;;;;;;;;;;26.50;38.93;91139.63;5048414;28;7048;-57
2024/02/10 11:36:53;;;;;;;;;;;;;;;26.51;38.73;91144.53;5091347;28;7903;-57
2024/02/10 11:40:19;;;;;;;;;;;;;;;26.53;39.28;91136.41;5066160;28;7213;-57
2024/02/10 11:43:02;;;;;;;;;;;;;;;26.51;38.84;91138.31;5073885;28;7273;-57
2024/02/10 11:46:01;;;;;;;;;;;;;;;26.53;38.65;91130.91;5074253;28;7425;-57
2024/02/10 11:48:28;;;;;;;;;;;;;;;26.51;38.98;91128.00;5048558;28;9097;-57
2024/02/10 11:50:54;;;;;;;;;;;;;;;26.51;39.48;91127.28;5045813;28;7063;-57
2024/02/10 11:53:22;;;;;;;;;;;;;;;26.48;39.28;91126.44;5079059;28;9073;-52
2024/02/10 11:56:17;;;;;;;;;;;;;;;26.51;38.96;91121.78;5088945;28;9728;-51
2024/02/10 11:58:45;;;;;;;;;;;;;;;26.51;39.13;91110.75;4992406;28;7014;-53
2024/02/10 12:01:23;;;;;;;;;;;;;;;26.50;39.16;91125.84;4993122;28;9111;-52
2024/02/10 12:04:20;;;;;;;;;;;;;;;26.52;38.78;91112.19;4978848;28;7231;-53
2024/02/10 12:07:15;;;;;;;;;;;;;;;26.51;38.97;91116.28;4935117;29;7654;-51
2024/02/10 12:09:41;;;;;;;;;;;;;;;26.48;39.35;91111.94;4861845;29;7064;-52
2024/02/10 12:12:15;;;;;;;;;;;;;;;26.47;38.94;91113.97;4865451;29;9651;-53
2024/02/10 12:14:41;;;;;;;;;;;;;;;26.50;38.97;91095.53;4858705;29;7336;-52
2024/02/10 12:17:07;;;;;;;;;;;;;;;26.49;38.75;91102.38;4859359;29;9472;-52
2024/02/10 12:19:38;;;;;;;;;;;;;;;26.51;39.62;91094.22;4873252;29;6956;-51
2024/02/10 12:22:12;;;;;;;;;;;;;;;26.52;38.62;91093.63;4878430;29;9025;-53
2024/02/10 12:24:44;;;;;;;;;;;;;;;26.51;39.12;91088.72;4865209;29;7356;-52
2024/02/10 12:27:32;;;;;;;;;;;;;;;26.52;38.88;91101.16;4859443;29;7258;-51
2024/02/10 12:30:13;;;;;;;;;;;;;;;26.52;38.97;91090.13;4875928;29;7314;-52
2024/02/10 12:32:54;;;;;;;;;;;;;;;26.51;39.00;91086.66;4847323;29;8793;-52
2024/02/10 12:35:21;;;;;;;;;;;;;;;26.50;39.03;91074.22;4902625;29;7370;-52
2024/02/10 12:37:47;;;;;;;;;;;;;;;26.53;38.49;91066.78;4934602;29;7023;-53
2024/02/10 12:40:21;;;;;;;;;;;;;;;26.52;39.20;91054.31;4935654;28;6989;-53
2024/02/10 12:42:51;;;;;;;;;;;;;;;26.55;38.90;91066.91;4961664;28;7429;-53
2024/02/10 12:45:19;;;;;;;;;;;;;;;26.48;39.00;91068.56;4998939;28;7448;-53
2024/02/10 12:47:58;;;;;;;;;;;;;;;26.55;39.14;91066.91;5077652;28;7119;-52
2024/02/10 12:50:32;;;;;;;;;;;;;;;26.55;39.18;91062.13;5074399;28;7260;-54
2024/02/10 12:53:00;;;;;;;;;;;;;;;26.54;39.18;91048.91;5068988;28;7511;-53
2024/02/10 12:55:28;;;;;;;;;;;;;;;26.52;38.70;91046.03;5069777;28;7268;-52
2024/02/10 12:57:56;;;;;;;;;;;;;;;26.54;38.84;91055.16;5052923;28;7158;-53
2024/02/10 13:00:50;;;;;;;;;;;;;;;26.57;38.89;91058.75;5077185;28;7058;-53
2024/02/10 13:03:29;;;;;;;;;;;;;;;26.54;39.00;91049.66;4981565;28;7147;-37
2024/02/10 13:06:00;;;;;;;;;;;;;;;26.54;38.85;91048.91;4956115;28;6933;-38
2024/02/10 13:08:52;;;;;;;;;;;;;;;26.53;38.86;91025.44;4982346;28;7473;-37
2024/02/10 13:11:18;;;;;;;;;;;;;;;26.53;39.20;91041.97;4992153;28;7212;-38
2024/02/10 13:13:45;;;;;;;;;;;;;;;26.52;39.48;91046.03;4958574;28;7331;-37
2024/02/10 13:16:11;;;;;;;;;;;;;;;26.50;38.78;91037.66;4972861;28;7292;-38
2024/02/10 13:18:37;;;;;;;;;;;;;;;26.53;38.62;91039.22;4987422;28;7435;-38
2024/02/10 13:21:07;;;;;;;;;;;;;;;26.51;39.02;91028.06;4972180;28;9378;-38
2024/02/10 13:23:54;;;;;;;;;;;;;;;26.51;38.87;91034.28;4957213;28;7530;-37
2024/02/10 13:26:40;;;;;;;;;;;;;;;26.50;38.92;91021.84;4953131;29;7264;-38
2024/02/10 13:29:23;;;;;;;;;;;;;;;26.49;39.28;91019.69;4961868;28;9068;-38